sensor_id;sensor_type;location;lat;lon;timestamp;temperature;humidity
8372;DHT22;4223;48.724;8.982;2022-07-23T00:00:11;22.30;99.90
8372;DHT22;4223;48.724;8.982;2022-07-23T00:02:38;22.30;99.90
8372;DHT22;4223;48.724;8.982;2022-07-23T00:05:05;22.20;99.90
8372;DHT22;4223;48.724;8.982;2022-07-23T00:07:33;22.20;99.90
8372;DHT22;4223;48.724;8.982;2022-07-23T00:10:00;22.20;99.90
8372;DHT22;4223;48.724;8.982;2022-07-23T00:12:27;22.10;99.90
8372;DHT22;4223;48.724;8.982;2022-07-23T00:14:54;22.00;99.90
8372;DHT22;4223;48.724;8.982;2022-07-23T00:17:21;22.00;99.90
8372;DHT22;4223;48.724;8.982;2022-07-23T00:19:48;21.90;1.00
8372;DHT22;4223;48.724;8.982;2022-07-23T00:22:14;21.90;1.00
8372;DHT22;4223;48.724;8.982;2022-07-23T00:24:43;21.80;1.00
8372;DHT22;4223;48.724;8.982;2022-07-23T00:27:09;21.80;1.00
8372;DHT22;4223;48.724;8.982;2022-07-23T00:29:36;21.70;1.00
8372;DHT22;4223;48.724;8.982;2022-07-23T00:32:04;21.70;1.00
8372;DHT22;4223;48.724;8.982;2022-07-23T00:34:31;21.60;1.00
8372;DHT22;4223;48.724;8.982;2022-07-23T00:36:58;21.60;1.00
8372;DHT22;4223;48.724;8.982;2022-07-23T00:39:25;21.60;1.00
8372;DHT22;4223;48.724;8.982;2022-07-23T00:41:53;21.50;1.00
8372;DHT22;4223;48.724;8.982;2022-07-23T00:44:21;21.40;1.00
8372;DHT22;4223;48.724;8.982;2022-07-23T00:46:50;21.40;1.00
8372;DHT22;4223;48.724;8.982;2022-07-23T00:49:18;21.30;1.00
8372;DHT22;4223;48.724;8.982;2022-07-23T00:51:46;21.30;1.00
8372;DHT22;4223;48.724;8.982;2022-07-23T00:54:13;21.30;1.00
8372;DHT22;4223;48.724;8.982;2022-07-23T00:56:41;21.30;1.00
8372;DHT22;4223;48.724;8.982;2022-07-23T00:59:10;21.20;1.00
8372;DHT22;4223;48.724;8.982;2022-07-23T01:01:37;21.20;1.00
8372;DHT22;4223;48.724;8.982;2022-07-23T01:04:05;21.20;1.00
8372;DHT22;4223;48.724;8.982;2022-07-23T01:06:35;21.10;1.00
8372;DHT22;4223;48.724;8.982;2022-07-23T01:09:04;21.10;99.90
8372;DHT22;4223;48.724;8.982;2022-07-23T01:11:31;21.00;99.90
8372;DHT22;4223;48.724;8.982;2022-07-23T01:13:59;21.00;99.90
8372;DHT22;4223;48.724;8.982;2022-07-23T01:16:27;21.00;99.90
8372;DHT22;4223;48.724;8.982;2022-07-23T01:18:54;21.00;99.90
8372;DHT22;4223;48.724;8.982;2022-07-23T01:21:21;20.90;99.90
8372;DHT22;4223;48.724;8.982;2022-07-23T01:23:49;21.00;99.90
8372;DHT22;4223;48.724;8.982;2022-07-23T01:26:16;20.90;99.90
8372;DHT22;4223;48.724;8.982;2022-07-23T01:28:43;20.90;99.90
8372;DHT22;4223;48.724;8.982;2022-07-23T01:31:10;20.90;99.90
8372;DHT22;4223;48.724;8.982;2022-07-23T01:33:37;20.90;1.00
8372;DHT22;4223;48.724;8.982;2022-07-23T01:36:05;20.90;1.00
8372;DHT22;4223;48.724;8.982;2022-07-23T01:38:32;20.80;1.00
8372;DHT22;4223;48.724;8.982;2022-07-23T01:41:00;20.80;1.00
8372;DHT22;4223;48.724;8.982;2022-07-23T01:43:27;20.70;99.90
8372;DHT22;4223;48.724;8.982;2022-07-23T01:45:54;20.60;1.00
8372;DHT22;4223;48.724;8.982;2022-07-23T01:48:21;20.40;99.90
8372;DHT22;4223;48.724;8.982;2022-07-23T01:50:48;20.40;1.00
8372;DHT22;4223;48.724;8.982;2022-07-23T01:53:15;20.30;1.00
8372;DHT22;4223;48.724;8.982;2022-07-23T01:55:42;20.20;99.90
8372;DHT22;4223;48.724;8.982;2022-07-23T01:58:11;20.10;1.00
8372;DHT22;4223;48.724;8.982;2022-07-23T02:00:37;20.10;1.00
8372;DHT22;4223;48.724;8.982;2022-07-23T02:03:04;20.10;1.00
8372;DHT22;4223;48.724;8.982;2022-07-23T02:05:32;20.10;1.00
8372;DHT22;4223;48.724;8.982;2022-07-23T02:07:59;20.20;99.90
8372;DHT22;4223;48.724;8.982;2022-07-23T02:10:26;20.10;88.60
8372;DHT22;4223;48.724;8.982;2022-07-23T02:12:53;20.00;35.90
8372;DHT22;4223;48.724;8.982;2022-07-23T02:15:22;20.00;99.90
8372;DHT22;4223;48.724;8.982;2022-07-23T02:17:48;19.90;1.00
8372;DHT22;4223;48.724;8.982;2022-07-23T02:20:15;19.80;1.00
8372;DHT22;4223;48.724;8.982;2022-07-23T02:22:42;19.80;1.00
8372;DHT22;4223;48.724;8.982;2022-07-23T02:25:09;19.80;99.90
8372;DHT22;4223;48.724;8.982;2022-07-23T02:27:36;19.80;99.90
8372;DHT22;4223;48.724;8.982;2022-07-23T02:30:04;19.80;1.00
8372;DHT22;4223;48.724;8.982;2022-07-23T02:32:33;19.70;99.90
8372;DHT22;4223;48.724;8.982;2022-07-23T02:35:00;19.70;1.00
8372;DHT22;4223;48.724;8.982;2022-07-23T02:37:27;19.70;1.00
8372;DHT22;4223;48.724;8.982;2022-07-23T02:39:54;19.60;66.90
8372;DHT22;4223;48.724;8.982;2022-07-23T02:42:21;19.60;99.90
8372;DHT22;4223;48.724;8.982;2022-07-23T02:44:49;19.50;99.90
8372;DHT22;4223;48.724;8.982;2022-07-23T02:47:16;19.60;99.90
8372;DHT22;4223;48.724;8.982;2022-07-23T02:49:44;19.50;99.90
8372;DHT22;4223;48.724;8.982;2022-07-23T02:52:11;19.50;99.90
8372;DHT22;4223;48.724;8.982;2022-07-23T02:54:38;19.50;99.90
8372;DHT22;4223;48.724;8.982;2022-07-23T02:57:05;19.50;1.00
8372;DHT22;4223;48.724;8.982;2022-07-23T02:59:32;19.50;1.00
8372;DHT22;4223;48.724;8.982;2022-07-23T03:01:59;19.40;1.00
8372;DHT22;4223;48.724;8.982;2022-07-23T03:04:26;19.40;1.00
8372;DHT22;4223;48.724;8.982;2022-07-23T03:06:54;19.40;1.00
8372;DHT22;4223;48.724;8.982;2022-07-23T03:09:21;19.40;99.90
8372;DHT22;4223;48.724;8.982;2022-07-23T03:11:48;19.40;99.90
8372;DHT22;4223;48.724;8.982;2022-07-23T03:14:15;19.40;99.90
8372;DHT22;4223;48.724;8.982;2022-07-23T03:16:42;19.40;99.90
8372;DHT22;4223;48.724;8.982;2022-07-23T03:19:08;19.40;99.90
8372;DHT22;4223;48.724;8.982;2022-07-23T03:21:35;19.40;99.90
8372;DHT22;4223;48.724;8.982;2022-07-23T03:24:07;19.40;99.90
8372;DHT22;4223;48.724;8.982;2022-07-23T03:26:34;19.50;1.00
8372;DHT22;4223;48.724;8.982;2022-07-23T03:29:01;19.50;99.90
8372;DHT22;4223;48.724;8.982;2022-07-23T03:31:29;19.50;1.00
8372;DHT22;4223;48.724;8.982;2022-07-23T03:33:56;19.40;99.90
8372;DHT22;4223;48.724;8.982;2022-07-23T03:36:23;19.40;99.90
8372;DHT22;4223;48.724;8.982;2022-07-23T03:38:50;19.30;1.00
8372;DHT22;4223;48.724;8.982;2022-07-23T03:41:18;19.30;99.90
8372;DHT22;4223;48.724;8.982;2022-07-23T03:43:45;19.30;99.90
8372;DHT22;4223;48.724;8.982;2022-07-23T03:46:12;19.40;99.90
8372;DHT22;4223;48.724;8.982;2022-07-23T03:48:39;19.40;29.80
8372;DHT22;4223;48.724;8.982;2022-07-23T03:51:06;19.40;1.00
8372;DHT22;4223;48.724;8.982;2022-07-23T03:53:33;19.50;99.90
8372;DHT22;4223;48.724;8.982;2022-07-23T03:56:00;19.50;1.00
8372;DHT22;4223;48.724;8.982;2022-07-23T03:58:28;19.50;62.40
8372;DHT22;4223;48.724;8.982;2022-07-23T04:00:55;19.50;99.90
8372;DHT22;4223;48.724;8.982;2022-07-23T04:03:21;19.50;14.60
8372;DHT22;4223;48.724;8.982;2022-07-23T04:05:48;19.40;1.00
8372;DHT22;4223;48.724;8.982;2022-07-23T04:08:15;19.40;1.00
8372;DHT22;4223;48.724;8.982;2022-07-23T04:10:42;19.40;1.00
8372;DHT22;4223;48.724;8.982;2022-07-23T04:13:09;19.40;90.70
8372;DHT22;4223;48.724;8.982;2022-07-23T04:15:37;19.30;1.00
8372;DHT22;4223;48.724;8.982;2022-07-23T04:18:04;19.40;20.80
8372;DHT22;4223;48.724;8.982;2022-07-23T04:20:31;19.40;72.20
8372;DHT22;4223;48.724;8.982;2022-07-23T04:22:58;19.40;1.00
8372;DHT22;4223;48.724;8.982;2022-07-23T04:25:25;19.40;99.90
8372;DHT22;4223;48.724;8.982;2022-07-23T04:27:52;19.40;99.90
8372;DHT22;4223;48.724;8.982;2022-07-23T04:30:19;19.40;1.00
8372;DHT22;4223;48.724;8.982;2022-07-23T04:32:47;19.40;1.00
8372;DHT22;4223;48.724;8.982;2022-07-23T04:35:14;19.50;1.00
8372;DHT22;4223;48.724;8.982;2022-07-23T04:37:40;19.50;1.00
8372;DHT22;4223;48.724;8.982;2022-07-23T04:40:08;19.60;1.00
8372;DHT22;4223;48.724;8.982;2022-07-23T04:42:36;19.60;98.90
8372;DHT22;4223;48.724;8.982;2022-07-23T04:45:03;19.60;1.00
8372;DHT22;4223;48.724;8.982;2022-07-23T04:47:30;19.70;99.90
8372;DHT22;4223;48.724;8.982;2022-07-23T04:49:59;19.70;1.00
8372;DHT22;4223;48.724;8.982;2022-07-23T04:52:26;19.70;99.90
8372;DHT22;4223;48.724;8.982;2022-07-23T04:54:52;19.70;99.90
8372;DHT22;4223;48.724;8.982;2022-07-23T04:57:19;19.80;1.00
8372;DHT22;4223;48.724;8.982;2022-07-23T04:59:46;19.80;99.90
8372;DHT22;4223;48.724;8.982;2022-07-23T05:02:13;19.80;43.60
8372;DHT22;4223;48.724;8.982;2022-07-23T05:04:40;19.80;99.90
8372;DHT22;4223;48.724;8.982;2022-07-23T05:07:08;19.80;99.90
8372;DHT22;4223;48.724;8.982;2022-07-23T05:09:35;19.90;99.90
8372;DHT22;4223;48.724;8.982;2022-07-23T05:12:02;20.00;1.00
8372;DHT22;4223;48.724;8.982;2022-07-23T05:14:29;19.90;30.10
8372;DHT22;4223;48.724;8.982;2022-07-23T05:16:56;19.90;1.00
8372;DHT22;4223;48.724;8.982;2022-07-23T05:19:23;20.00;99.90
8372;DHT22;4223;48.724;8.982;2022-07-23T05:21:49;20.00;1.00
8372;DHT22;4223;48.724;8.982;2022-07-23T05:24:18;20.10;1.30
8372;DHT22;4223;48.724;8.982;2022-07-23T05:26:45;20.20;1.00
8372;DHT22;4223;48.724;8.982;2022-07-23T05:29:11;20.20;47.10
8372;DHT22;4223;48.724;8.982;2022-07-23T05:31:38;20.30;99.90
8372;DHT22;4223;48.724;8.982;2022-07-23T05:34:05;20.30;56.80
8372;DHT22;4223;48.724;8.982;2022-07-23T05:36:32;20.30;1.00
8372;DHT22;4223;48.724;8.982;2022-07-23T05:38:59;20.40;1.00
8372;DHT22;4223;48.724;8.982;2022-07-23T05:41:27;20.40;1.00
8372;DHT22;4223;48.724;8.982;2022-07-23T05:43:54;20.40;1.00
8372;DHT22;4223;48.724;8.982;2022-07-23T05:46:21;20.30;99.90
8372;DHT22;4223;48.724;8.982;2022-07-23T05:48:48;20.30;1.00
8372;DHT22;4223;48.724;8.982;2022-07-23T05:51:19;20.30;99.90
8372;DHT22;4223;48.724;8.982;2022-07-23T05:53:46;20.40;99.90
8372;DHT22;4223;48.724;8.982;2022-07-23T05:56:13;20.50;99.90
8372;DHT22;4223;48.724;8.982;2022-07-23T05:58:42;20.50;99.90
8372;DHT22;4223;48.724;8.982;2022-07-23T06:01:09;20.60;1.00
8372;DHT22;4223;48.724;8.982;2022-07-23T06:03:37;20.60;1.00
8372;DHT22;4223;48.724;8.982;2022-07-23T06:06:04;20.70;99.90
8372;DHT22;4223;48.724;8.982;2022-07-23T06:08:31;20.70;1.00
8372;DHT22;4223;48.724;8.982;2022-07-23T06:10:58;20.70;99.90
8372;DHT22;4223;48.724;8.982;2022-07-23T06:13:25;20.80;1.00
8372;DHT22;4223;48.724;8.982;2022-07-23T06:15:53;20.80;1.00
8372;DHT22;4223;48.724;8.982;2022-07-23T06:18:20;20.90;99.90
8372;DHT22;4223;48.724;8.982;2022-07-23T06:20:47;21.00;1.00
8372;DHT22;4223;48.724;8.982;2022-07-23T06:23:14;21.00;99.90
8372;DHT22;4223;48.724;8.982;2022-07-23T06:25:40;21.20;1.00
8372;DHT22;4223;48.724;8.982;2022-07-23T06:28:07;21.40;1.00
8372;DHT22;4223;48.724;8.982;2022-07-23T06:30:34;21.50;99.90
8372;DHT22;4223;48.724;8.982;2022-07-23T06:33:03;21.70;65.70
8372;DHT22;4223;48.724;8.982;2022-07-23T06:35:30;21.80;99.90
8372;DHT22;4223;48.724;8.982;2022-07-23T06:37:57;21.70;99.90
8372;DHT22;4223;48.724;8.982;2022-07-23T06:40:23;21.60;99.90
8372;DHT22;4223;48.724;8.982;2022-07-23T06:42:50;21.50;1.00
8372;DHT22;4223;48.724;8.982;2022-07-23T06:45:17;21.50;44.70
8372;DHT22;4223;48.724;8.982;2022-07-23T06:47:44;21.50;73.60
8372;DHT22;4223;48.724;8.982;2022-07-23T06:50:13;21.40;3.50
8372;DHT22;4223;48.724;8.982;2022-07-23T06:52:39;21.30;99.90
8372;DHT22;4223;48.724;8.982;2022-07-23T06:55:07;21.30;99.90
8372;DHT22;4223;48.724;8.982;2022-07-23T06:57:34;21.30;4.20
8372;DHT22;4223;48.724;8.982;2022-07-23T07:00:01;21.40;99.90
8372;DHT22;4223;48.724;8.982;2022-07-23T07:02:28;21.30;99.90
8372;DHT22;4223;48.724;8.982;2022-07-23T07:04:54;21.20;1.00
8372;DHT22;4223;48.724;8.982;2022-07-23T07:07:23;21.20;5.10
8372;DHT22;4223;48.724;8.982;2022-07-23T07:09:50;21.10;99.90
8372;DHT22;4223;48.724;8.982;2022-07-23T07:12:17;21.20;1.00
8372;DHT22;4223;48.724;8.982;2022-07-23T07:14:43;21.20;1.00
8372;DHT22;4223;48.724;8.982;2022-07-23T07:17:10;21.10;1.00
8372;DHT22;4223;48.724;8.982;2022-07-23T07:19:37;21.10;99.90
8372;DHT22;4223;48.724;8.982;2022-07-23T07:22:04;21.00;1.00
8372;DHT22;4223;48.724;8.982;2022-07-23T07:24:32;21.00;99.90
8372;DHT22;4223;48.724;8.982;2022-07-23T07:26:59;21.10;1.00
8372;DHT22;4223;48.724;8.982;2022-07-23T07:29:26;21.40;99.90
8372;DHT22;4223;48.724;8.982;2022-07-23T07:31:53;21.80;1.00
8372;DHT22;4223;48.724;8.982;2022-07-23T07:34:20;22.10;1.00
8372;DHT22;4223;48.724;8.982;2022-07-23T07:36:47;22.50;1.00
8372;DHT22;4223;48.724;8.982;2022-07-23T07:39:15;22.60;1.00
8372;DHT22;4223;48.724;8.982;2022-07-23T07:41:43;23.20;1.00
8372;DHT22;4223;48.724;8.982;2022-07-23T07:44:10;23.40;99.90
8372;DHT22;4223;48.724;8.982;2022-07-23T07:46:37;23.80;1.00
8372;DHT22;4223;48.724;8.982;2022-07-23T07:49:04;24.20;1.00
8372;DHT22;4223;48.724;8.982;2022-07-23T07:51:31;23.70;1.00
8372;DHT22;4223;48.724;8.982;2022-07-23T07:53:58;23.30;1.00
8372;DHT22;4223;48.724;8.982;2022-07-23T07:56:25;23.00;1.00
8372;DHT22;4223;48.724;8.982;2022-07-23T07:58:53;23.50;1.00
8372;DHT22;4223;48.724;8.982;2022-07-23T08:01:20;23.80;1.00
8372;DHT22;4223;48.724;8.982;2022-07-23T08:03:47;23.50;1.00
8372;DHT22;4223;48.724;8.982;2022-07-23T08:06:14;23.00;1.00
8372;DHT22;4223;48.724;8.982;2022-07-23T08:08:41;22.80;1.00
8372;DHT22;4223;48.724;8.982;2022-07-23T08:11:07;22.50;1.00
8372;DHT22;4223;48.724;8.982;2022-07-23T08:13:34;22.30;1.00
8372;DHT22;4223;48.724;8.982;2022-07-23T08:16:03;22.20;15.40
8372;DHT22;4223;48.724;8.982;2022-07-23T08:18:30;22.10;99.90
8372;DHT22;4223;48.724;8.982;2022-07-23T08:20:57;22.00;99.90
8372;DHT22;4223;48.724;8.982;2022-07-23T08:23:24;22.10;99.90
8372;DHT22;4223;48.724;8.982;2022-07-23T08:25:51;23.00;1.00
8372;DHT22;4223;48.724;8.982;2022-07-23T08:28:17;23.30;1.00
8372;DHT22;4223;48.724;8.982;2022-07-23T08:30:46;23.10;1.00
8372;DHT22;4223;48.724;8.982;2022-07-23T08:33:16;23.00;1.00
8372;DHT22;4223;48.724;8.982;2022-07-23T08:35:44;24.00;1.00
8372;DHT22;4223;48.724;8.982;2022-07-23T08:38:14;25.00;1.00
8372;DHT22;4223;48.724;8.982;2022-07-23T08:40:43;25.90;99.90
8372;DHT22;4223;48.724;8.982;2022-07-23T08:43:11;26.80;99.90
8372;DHT22;4223;48.724;8.982;2022-07-23T08:45:40;27.40;99.90
8372;DHT22;4223;48.724;8.982;2022-07-23T08:48:11;27.70;99.90
8372;DHT22;4223;48.724;8.982;2022-07-23T08:50:42;27.80;99.90
8372;DHT22;4223;48.724;8.982;2022-07-23T08:53:10;27.20;99.90
8372;DHT22;4223;48.724;8.982;2022-07-23T08:55:37;27.30;99.90
8372;DHT22;4223;48.724;8.982;2022-07-23T08:58:04;27.80;99.90
8372;DHT22;4223;48.724;8.982;2022-07-23T09:00:31;28.20;99.90
8372;DHT22;4223;48.724;8.982;2022-07-23T09:02:58;28.10;99.90
8372;DHT22;4223;48.724;8.982;2022-07-23T09:05:25;28.10;99.90
8372;DHT22;4223;48.724;8.982;2022-07-23T09:08:05;28.40;99.90
8372;DHT22;4223;48.724;8.982;2022-07-23T09:10:46;28.60;99.90
8372;DHT22;4223;48.724;8.982;2022-07-23T09:13:25;28.40;99.90
8372;DHT22;4223;48.724;8.982;2022-07-23T09:15:54;27.80;99.90
8372;DHT22;4223;48.724;8.982;2022-07-23T09:18:29;27.70;99.90
8372;DHT22;4223;48.724;8.982;2022-07-23T09:21:10;27.10;99.90
8372;DHT22;4223;48.724;8.982;2022-07-23T09:23:40;26.50;99.90
8372;DHT22;4223;48.724;8.982;2022-07-23T09:26:28;26.10;99.90
8372;DHT22;4223;48.724;8.982;2022-07-23T09:28:58;25.80;99.90
8372;DHT22;4223;48.724;8.982;2022-07-23T09:31:32;25.30;99.90
8372;DHT22;4223;48.724;8.982;2022-07-23T09:34:07;25.50;99.90
8372;DHT22;4223;48.724;8.982;2022-07-23T09:36:35;26.00;99.90
8372;DHT22;4223;48.724;8.982;2022-07-23T09:39:04;26.30;99.90
8372;DHT22;4223;48.724;8.982;2022-07-23T09:41:35;26.20;99.90
8372;DHT22;4223;48.724;8.982;2022-07-23T09:44:07;26.10;99.90
8372;DHT22;4223;48.724;8.982;2022-07-23T09:46:35;25.90;99.90
8372;DHT22;4223;48.724;8.982;2022-07-23T09:49:13;26.40;99.90
8372;DHT22;4223;48.724;8.982;2022-07-23T09:51:48;26.30;99.90
8372;DHT22;4223;48.724;8.982;2022-07-23T09:54:31;26.90;99.90
8372;DHT22;4223;48.724;8.982;2022-07-23T09:57:00;27.30;99.90
8372;DHT22;4223;48.724;8.982;2022-07-23T09:59:30;27.90;99.90
8372;DHT22;4223;48.724;8.982;2022-07-23T10:01:58;28.50;99.90
8372;DHT22;4223;48.724;8.982;2022-07-23T10:04:27;28.60;99.90
8372;DHT22;4223;48.724;8.982;2022-07-23T10:06:56;28.60;99.90
8372;DHT22;4223;48.724;8.982;2022-07-23T10:09:26;28.30;99.90
8372;DHT22;4223;48.724;8.982;2022-07-23T10:11:59;27.70;99.90
8372;DHT22;4223;48.724;8.982;2022-07-23T10:14:41;27.70;99.90
8372;DHT22;4223;48.724;8.982;2022-07-23T10:17:08;28.10;99.90
8372;DHT22;4223;48.724;8.982;2022-07-23T10:19:36;28.30;99.90
8372;DHT22;4223;48.724;8.982;2022-07-23T10:22:04;28.00;99.90
8372;DHT22;4223;48.724;8.982;2022-07-23T10:24:45;27.60;99.90
8372;DHT22;4223;48.724;8.982;2022-07-23T10:27:37;27.90;99.90
8372;DHT22;4223;48.724;8.982;2022-07-23T10:30:10;28.50;99.90
8372;DHT22;4223;48.724;8.982;2022-07-23T10:32:58;28.60;99.90
8372;DHT22;4223;48.724;8.982;2022-07-23T10:35:39;28.50;99.90
8372;DHT22;4223;48.724;8.982;2022-07-23T10:38:13;28.80;99.90
8372;DHT22;4223;48.724;8.982;2022-07-23T10:40:54;29.20;99.90
8372;DHT22;4223;48.724;8.982;2022-07-23T10:43:24;29.50;99.90
8372;DHT22;4223;48.724;8.982;2022-07-23T10:45:51;29.70;99.90
8372;DHT22;4223;48.724;8.982;2022-07-23T10:48:20;29.70;99.90
8372;DHT22;4223;48.724;8.982;2022-07-23T10:51:15;30.00;99.90
8372;DHT22;4223;48.724;8.982;2022-07-23T10:53:56;29.90;99.90
8372;DHT22;4223;48.724;8.982;2022-07-23T10:56:49;30.20;99.90
8372;DHT22;4223;48.724;8.982;2022-07-23T10:59:17;30.20;99.90
8372;DHT22;4223;48.724;8.982;2022-07-23T11:01:45;30.10;99.90
8372;DHT22;4223;48.724;8.982;2022-07-23T11:04:12;30.00;99.90
8372;DHT22;4223;48.724;8.982;2022-07-23T11:07:06;29.80;99.90
8372;DHT22;4223;48.724;8.982;2022-07-23T11:09:39;30.10;99.90
8372;DHT22;4223;48.724;8.982;2022-07-23T11:12:32;30.10;99.90
8372;DHT22;4223;48.724;8.982;2022-07-23T11:15:04;30.10;99.90
8372;DHT22;4223;48.724;8.982;2022-07-23T11:17:33;29.70;99.90
8372;DHT22;4223;48.724;8.982;2022-07-23T11:20:22;29.50;99.90
8372;DHT22;4223;48.724;8.982;2022-07-23T11:22:52;29.70;99.90
8372;DHT22;4223;48.724;8.982;2022-07-23T11:25:34;29.50;99.90
8372;DHT22;4223;48.724;8.982;2022-07-23T11:28:13;29.30;99.90
8372;DHT22;4223;48.724;8.982;2022-07-23T11:30:43;29.30;99.90
8372;DHT22;4223;48.724;8.982;2022-07-23T11:33:20;29.50;99.90
8372;DHT22;4223;48.724;8.982;2022-07-23T11:36:00;29.70;99.90
8372;DHT22;4223;48.724;8.982;2022-07-23T11:38:30;29.90;99.90
8372;DHT22;4223;48.724;8.982;2022-07-23T11:40:57;30.00;99.90
8372;DHT22;4223;48.724;8.982;2022-07-23T11:43:24;29.80;99.90
8372;DHT22;4223;48.724;8.982;2022-07-23T11:45:54;30.00;99.90
8372;DHT22;4223;48.724;8.982;2022-07-23T11:48:22;30.20;99.90
8372;DHT22;4223;48.724;8.982;2022-07-23T11:50:50;30.30;99.90
8372;DHT22;4223;48.724;8.982;2022-07-23T11:53:25;30.30;99.90
8372;DHT22;4223;48.724;8.982;2022-07-23T11:55:52;30.30;99.90
8372;DHT22;4223;48.724;8.982;2022-07-23T11:58:20;30.30;99.90
8372;DHT22;4223;48.724;8.982;2022-07-23T12:00:47;30.30;99.90
8372;DHT22;4223;48.724;8.982;2022-07-23T12:03:17;30.10;99.90
8372;DHT22;4223;48.724;8.982;2022-07-23T12:05:44;30.20;99.90
8372;DHT22;4223;48.724;8.982;2022-07-23T12:08:11;30.10;99.90
8372;DHT22;4223;48.724;8.982;2022-07-23T12:10:39;30.00;99.90
8372;DHT22;4223;48.724;8.982;2022-07-23T12:13:08;29.80;99.90
8372;DHT22;4223;48.724;8.982;2022-07-23T12:15:38;29.70;99.90
8372;DHT22;4223;48.724;8.982;2022-07-23T12:18:07;29.70;99.90
8372;DHT22;4223;48.724;8.982;2022-07-23T12:20:39;29.30;99.90
8372;DHT22;4223;48.724;8.982;2022-07-23T12:23:09;29.40;99.90
8372;DHT22;4223;48.724;8.982;2022-07-23T12:25:38;29.30;99.90
8372;DHT22;4223;48.724;8.982;2022-07-23T12:28:07;29.20;99.90
8372;DHT22;4223;48.724;8.982;2022-07-23T12:30:38;28.80;99.90
8372;DHT22;4223;48.724;8.982;2022-07-23T12:33:06;28.40;99.90
8372;DHT22;4223;48.724;8.982;2022-07-23T12:35:37;27.90;99.90
8372;DHT22;4223;48.724;8.982;2022-07-23T12:38:07;27.60;99.90
8372;DHT22;4223;48.724;8.982;2022-07-23T12:40:36;27.90;99.90
8372;DHT22;4223;48.724;8.982;2022-07-23T12:43:06;27.80;99.90
8372;DHT22;4223;48.724;8.982;2022-07-23T12:45:44;27.70;99.90
8372;DHT22;4223;48.724;8.982;2022-07-23T12:48:23;28.00;99.90
8372;DHT22;4223;48.724;8.982;2022-07-23T12:50:59;28.00;99.90
8372;DHT22;4223;48.724;8.982;2022-07-23T12:53:28;28.20;99.90
8372;DHT22;4223;48.724;8.982;2022-07-23T12:56:01;28.30;99.90
8372;DHT22;4223;48.724;8.982;2022-07-23T12:58:40;28.50;99.90
8372;DHT22;4223;48.724;8.982;2022-07-23T13:01:07;28.80;99.90
8372;DHT22;4223;48.724;8.982;2022-07-23T13:03:36;28.90;99.90
8372;DHT22;4223;48.724;8.982;2022-07-23T13:06:07;29.00;99.90
8372;DHT22;4223;48.724;8.982;2022-07-23T13:08:36;28.70;99.90
8372;DHT22;4223;48.724;8.982;2022-07-23T13:11:04;28.60;99.90
8372;DHT22;4223;48.724;8.982;2022-07-23T13:13:35;28.50;99.90
8372;DHT22;4223;48.724;8.982;2022-07-23T13:16:02;28.50;99.90
8372;DHT22;4223;48.724;8.982;2022-07-23T13:18:29;28.70;99.90
8372;DHT22;4223;48.724;8.982;2022-07-23T13:20:57;28.80;99.90
8372;DHT22;4223;48.724;8.982;2022-07-23T13:23:26;29.00;99.90
8372;DHT22;4223;48.724;8.982;2022-07-23T13:25:53;29.30;99.90
8372;DHT22;4223;48.724;8.982;2022-07-23T13:28:21;29.20;99.90
8372;DHT22;4223;48.724;8.982;2022-07-23T13:30:49;28.90;99.90
8372;DHT22;4223;48.724;8.982;2022-07-23T13:33:17;28.60;99.90
8372;DHT22;4223;48.724;8.982;2022-07-23T13:35:45;28.50;99.90
8372;DHT22;4223;48.724;8.982;2022-07-23T13:38:12;28.50;99.90
8372;DHT22;4223;48.724;8.982;2022-07-23T13:40:42;28.40;99.90
8372;DHT22;4223;48.724;8.982;2022-07-23T13:43:10;28.30;99.90
8372;DHT22;4223;48.724;8.982;2022-07-23T13:45:38;28.10;99.90
8372;DHT22;4223;48.724;8.982;2022-07-23T13:48:05;27.90;99.90
8372;DHT22;4223;48.724;8.982;2022-07-23T13:50:33;27.70;99.90
8372;DHT22;4223;48.724;8.982;2022-07-23T13:53:02;27.50;99.90
8372;DHT22;4223;48.724;8.982;2022-07-23T13:55:29;27.50;99.90
8372;DHT22;4223;48.724;8.982;2022-07-23T13:57:57;27.60;99.90
8372;DHT22;4223;48.724;8.982;2022-07-23T14:00:25;27.60;99.90
8372;DHT22;4223;48.724;8.982;2022-07-23T14:02:52;27.70;99.90
8372;DHT22;4223;48.724;8.982;2022-07-23T14:05:19;27.90;99.90
8372;DHT22;4223;48.724;8.982;2022-07-23T14:07:46;27.90;99.90
8372;DHT22;4223;48.724;8.982;2022-07-23T14:10:15;28.20;99.90
8372;DHT22;4223;48.724;8.982;2022-07-23T14:12:42;28.50;99.90
8372;DHT22;4223;48.724;8.982;2022-07-23T14:15:11;28.90;99.90
8372;DHT22;4223;48.724;8.982;2022-07-23T14:17:39;28.90;99.90
8372;DHT22;4223;48.724;8.982;2022-07-23T14:20:08;28.40;99.90
8372;DHT22;4223;48.724;8.982;2022-07-23T14:22:35;28.20;99.90
8372;DHT22;4223;48.724;8.982;2022-07-23T14:25:04;28.50;99.90
8372;DHT22;4223;48.724;8.982;2022-07-23T14:27:31;28.70;99.90
8372;DHT22;4223;48.724;8.982;2022-07-23T14:29:58;28.60;99.90
8372;DHT22;4223;48.724;8.982;2022-07-23T14:32:26;28.50;99.90
8372;DHT22;4223;48.724;8.982;2022-07-23T14:34:53;28.60;99.90
8372;DHT22;4223;48.724;8.982;2022-07-23T14:37:20;29.00;99.90
8372;DHT22;4223;48.724;8.982;2022-07-23T14:39:47;29.60;99.90
8372;DHT22;4223;48.724;8.982;2022-07-23T14:42:14;29.70;99.90
8372;DHT22;4223;48.724;8.982;2022-07-23T14:44:41;29.80;99.90
8372;DHT22;4223;48.724;8.982;2022-07-23T14:47:09;29.90;99.90
8372;DHT22;4223;48.724;8.982;2022-07-23T14:49:37;29.90;99.90
8372;DHT22;4223;48.724;8.982;2022-07-23T14:52:05;29.20;99.90
8372;DHT22;4223;48.724;8.982;2022-07-23T14:54:32;29.40;99.90
8372;DHT22;4223;48.724;8.982;2022-07-23T14:57:00;29.60;99.90
8372;DHT22;4223;48.724;8.982;2022-07-23T14:59:28;30.00;99.90
8372;DHT22;4223;48.724;8.982;2022-07-23T15:01:56;30.30;99.90
8372;DHT22;4223;48.724;8.982;2022-07-23T15:04:23;29.90;99.90
8372;DHT22;4223;48.724;8.982;2022-07-23T15:06:52;29.50;99.90
8372;DHT22;4223;48.724;8.982;2022-07-23T15:09:19;29.20;99.90
8372;DHT22;4223;48.724;8.982;2022-07-23T15:11:46;29.30;99.90
8372;DHT22;4223;48.724;8.982;2022-07-23T15:14:12;29.10;99.90
8372;DHT22;4223;48.724;8.982;2022-07-23T15:16:39;29.40;99.90
8372;DHT22;4223;48.724;8.982;2022-07-23T15:19:06;29.80;99.90
8372;DHT22;4223;48.724;8.982;2022-07-23T15:21:33;30.00;99.90
8372;DHT22;4223;48.724;8.982;2022-07-23T15:24:01;29.80;99.90
8372;DHT22;4223;48.724;8.982;2022-07-23T15:26:29;29.20;99.90
8372;DHT22;4223;48.724;8.982;2022-07-23T15:28:56;28.50;99.90
8372;DHT22;4223;48.724;8.982;2022-07-23T15:31:24;28.10;99.90
8372;DHT22;4223;48.724;8.982;2022-07-23T15:33:51;28.00;99.90
8372;DHT22;4223;48.724;8.982;2022-07-23T15:36:19;28.60;99.90
8372;DHT22;4223;48.724;8.982;2022-07-23T15:38:46;29.00;99.90
8372;DHT22;4223;48.724;8.982;2022-07-23T15:41:14;29.30;99.90
8372;DHT22;4223;48.724;8.982;2022-07-23T15:43:41;29.30;99.90
8372;DHT22;4223;48.724;8.982;2022-07-23T15:46:08;29.30;99.90
8372;DHT22;4223;48.724;8.982;2022-07-23T15:48:36;29.20;99.90
8372;DHT22;4223;48.724;8.982;2022-07-23T15:51:04;28.80;99.90
8372;DHT22;4223;48.724;8.982;2022-07-23T15:53:31;28.70;99.90
8372;DHT22;4223;48.724;8.982;2022-07-23T15:55:58;28.50;99.90
8372;DHT22;4223;48.724;8.982;2022-07-23T15:58:27;28.70;99.90
8372;DHT22;4223;48.724;8.982;2022-07-23T16:00:53;29.10;99.90
8372;DHT22;4223;48.724;8.982;2022-07-23T16:03:20;29.20;99.90
8372;DHT22;4223;48.724;8.982;2022-07-23T16:05:47;29.20;99.90
8372;DHT22;4223;48.724;8.982;2022-07-23T16:08:14;28.90;99.90
8372;DHT22;4223;48.724;8.982;2022-07-23T16:10:41;28.70;99.90
8372;DHT22;4223;48.724;8.982;2022-07-23T16:13:08;28.30;99.90
8372;DHT22;4223;48.724;8.982;2022-07-23T16:15:36;27.80;99.90